createdAt,value
2023-02-16T00:00:49.542Z,70.85
2023-02-16T00:05:51.895Z,70.07
2023-02-16T00:11:12.685Z,70.00
2023-02-16T00:16:23.687Z,70.97
2023-02-16T00:21:25.963Z,72.53
2023-02-16T00:26:29.970Z,69.25
2023-02-16T00:31:32.369Z,72.13
2023-02-16T00:36:34.577Z,71.95
2023-02-16T00:41:51.875Z,77.90
2023-02-16T00:46:54.541Z,70.50
2023-02-16T00:51:56.748Z,80.70
2023-02-16T00:56:59.123Z,73.43
2023-02-16T01:02:01.272Z,68.87
2023-02-16T01:07:30.092Z,71.37
2023-02-16T01:12:32.181Z,70.00
2023-02-16T01:17:34.375Z,69.68
2023-02-16T01:22:36.488Z,70.50
2023-02-16T01:27:39.539Z,71.93
2023-02-16T01:32:41.846Z,72.78
2023-02-16T01:37:44.048Z,67.93
2023-02-16T01:42:54.993Z,69.40
2023-02-16T01:48:20.433Z,70.40
2023-02-16T01:53:31.477Z,75.53
2023-02-16T01:58:54.418Z,74.40
2023-02-16T02:04:15.444Z,80.70
2023-02-16T02:09:27.662Z,73.80
2023-02-16T02:14:39.458Z,78.80
2023-02-16T02:19:58.338Z,72.55
2023-02-16T02:25:06.589Z,76.30
2023-02-16T02:30:16.435Z,78.15
2023-02-16T02:35:33.836Z,78.82
2023-02-16T02:41:23.812Z,74.93
2023-02-16T02:46:36.510Z,73.18
2023-02-16T02:51:40.462Z,73.85
2023-02-16T02:57:08.840Z,76.05
2023-02-16T03:02:12.384Z,73.97
2023-02-16T03:07:15.923Z,73.30
2023-02-16T03:12:36.731Z,74.10
2023-02-16T03:17:59.775Z,80.35
2023-02-16T03:23:23.186Z,82.35
2023-02-16T03:28:48.166Z,77.50
2023-02-16T03:33:55.064Z,70.17
2023-02-16T03:38:58.465Z,71.93
2023-02-16T03:44:01.018Z,68.37
2023-02-16T03:49:03.305Z,73.10
2023-02-16T03:54:05.453Z,68.45
2023-02-16T03:59:07.628Z,65.80
2023-02-16T04:04:09.830Z,65.47
2023-02-16T04:09:12.038Z,72.00
2023-02-16T04:14:14.178Z,68.45
2023-02-16T04:19:16.374Z,73.05
2023-02-16T04:24:18.899Z,70.70
2023-02-16T04:29:21.157Z,72.53
2023-02-16T04:34:23.414Z,57.40
2023-02-16T04:39:25.498Z,64.78
2023-02-16T04:44:27.698Z,68.35
2023-02-16T04:49:31.938Z,63.27
2023-02-16T04:54:34.621Z,68.62
2023-02-16T04:59:37.050Z,73.60
2023-02-16T05:04:39.368Z,66.93
2023-02-16T05:09:41.614Z,69.87
2023-02-16T05:14:46.717Z,76.43
2023-02-16T05:19:55.055Z,74.30
2023-02-16T05:24:57.135Z,76.80
2023-02-16T05:29:59.865Z,81.80
2023-02-16T05:35:02.082Z,81.00
2023-02-16T05:40:04.544Z,75.97
2023-02-16T05:45:06.963Z,87.45
2023-02-16T05:50:09.511Z,88.53
2023-02-16T05:55:11.628Z,83.90
2023-02-16T06:00:14.570Z,83.97
2023-02-16T06:05:16.797Z,84.97
2023-02-16T06:10:19.174Z,88.12
2023-02-16T06:15:21.247Z,84.43
2023-02-16T06:20:23.346Z,83.25
2023-02-16T06:25:25.442Z,75.18
2023-02-16T06:30:28.351Z,73.37
2023-02-16T06:35:30.689Z,74.93
2023-02-16T06:40:32.875Z,76.37
2023-02-16T06:45:35.042Z,80.78
2023-02-16T06:50:37.641Z,84.13
2023-02-16T06:55:39.773Z,73.53
2023-02-16T07:00:42.006Z,81.22
2023-02-16T07:05:44.187Z,79.22
2023-02-16T07:10:50.314Z,86.00
2023-02-16T07:15:52.732Z,79.28
2023-02-16T07:20:54.947Z,86.07
2023-02-16T07:25:57.086Z,87.12
2023-02-16T07:30:59.264Z,84.60
2023-02-16T07:36:01.417Z,89.97
2023-02-16T07:41:05.281Z,101.93
2023-02-16T07:46:09.304Z,112.60
2023-02-16T07:51:11.557Z,97.55
2023-02-16T07:56:26.521Z,108.20
2023-02-16T08:01:30.043Z,90.20
2023-02-16T08:06:34.116Z,92.35
2023-02-16T08:11:36.221Z,103.33
2023-02-16T08:16:38.832Z,95.95
2023-02-16T08:21:41.982Z,94.00
2023-02-16T08:26:44.848Z,94.35
2023-02-16T08:31:48.231Z,92.65
2023-02-16T08:36:56.894Z,82.47
2023-02-16T08:42:01.488Z,92.53
2023-02-16T08:47:03.838Z,95.38
2023-02-16T08:52:06.486Z,84.32
2023-02-16T08:57:09.450Z,89.13
2023-02-16T09:02:12.435Z,88.03
2023-02-16T09:07:15.454Z,85.68
2023-02-16T09:12:17.522Z,88.20
2023-02-16T09:17:19.817Z,88.68
2023-02-16T09:22:22.541Z,90.10
2023-02-16T09:27:24.719Z,88.70
2023-02-16T09:32:30.618Z,87.72
2023-02-16T09:43:40.428Z,81.10
2023-02-16T09:48:46.876Z,82.62
2023-02-16T09:53:56.313Z,78.60
2023-02-16T09:59:43.322Z,73.75
2023-02-16T10:05:00.396Z,78.60
2023-02-16T10:10:03.702Z,76.47
2023-02-16T10:15:19.846Z,75.72
2023-02-16T10:20:37.234Z,70.23
2023-02-16T10:26:05.319Z,77.78
2023-02-16T10:37:26.871Z,68.80
2023-02-16T10:42:37.842Z,64.15
2023-02-16T10:47:42.368Z,65.70
2023-02-16T10:52:44.995Z,67.28
2023-02-16T10:58:15.222Z,64.35
2023-02-16T11:03:22.483Z,74.27
2023-02-16T11:08:25.775Z,71.47
2023-02-16T11:13:34.511Z,67.77
2023-02-16T11:18:45.142Z,68.20
2023-02-16T11:23:59.617Z,65.65
2023-02-16T11:29:20.602Z,63.80
2023-02-16T11:34:36.996Z,62.40
2023-02-16T11:39:47.317Z,62.43
2023-02-16T11:44:57.123Z,55.97
2023-02-16T11:50:18.990Z,56.33
2023-02-16T11:55:33.914Z,52.57
2023-02-16T12:00:36.182Z,53.80
2023-02-16T12:06:02.382Z,56.50
2023-02-16T12:11:35.764Z,66.47
2023-02-16T12:17:26.804Z,55.67
2023-02-16T12:22:40.831Z,54.47
2023-02-16T12:27:51.047Z,53.05
2023-02-16T12:32:55.955Z,55.07
2023-02-16T12:38:34.148Z,54.55
2023-02-16T12:43:42.195Z,57.28
2023-02-16T12:49:13.740Z,60.33
2023-02-16T12:54:16.131Z,57.40
2023-02-16T12:59:39.356Z,55.43
2023-02-16T13:04:47.759Z,55.50
2023-02-16T13:10:02.115Z,56.72
2023-02-16T13:15:22.044Z,56.25
2023-02-16T13:20:24.962Z,54.40
2023-02-16T13:25:51.764Z,55.50
2023-02-16T13:31:12.627Z,56.15
2023-02-16T13:36:23.821Z,49.90
2023-02-16T13:42:03.676Z,55.55
2023-02-16T13:47:07.556Z,55.08
2023-02-16T13:52:41.296Z,55.60
2023-02-16T13:57:50.361Z,50.38
2023-02-16T14:02:59.742Z,50.45
2023-02-16T14:08:18.066Z,49.63
2023-02-16T14:13:38.562Z,49.95
2023-02-16T14:18:40.714Z,50.67
2023-02-16T14:23:43.467Z,47.47
2023-02-16T14:29:02.688Z,52.72
2023-02-16T14:34:18.481Z,52.40
2023-02-16T14:39:22.839Z,49.88
2023-02-16T14:45:15.361Z,50.40
2023-02-16T14:50:23.621Z,52.22
2023-02-16T14:55:26.219Z,46.20
2023-02-16T15:00:42.086Z,49.15
2023-02-16T15:05:56.308Z,46.80
2023-02-16T15:10:58.463Z,50.00
2023-02-16T15:16:04.638Z,48.53
2023-02-16T15:21:17.372Z,49.30
2023-02-16T15:26:28.530Z,47.60
2023-02-16T15:31:37.003Z,46.53
2023-02-16T15:36:43.780Z,46.57
2023-02-16T15:41:50.219Z,44.72
2023-02-16T15:46:52.813Z,42.83
2023-02-16T15:51:56.944Z,39.88
2023-02-16T15:57:01.337Z,45.33
2023-02-16T16:02:17.233Z,46.40
2023-02-16T16:07:41.895Z,45.50
2023-02-16T16:12:46.921Z,43.97
2023-02-16T16:17:50.675Z,49.53
2023-02-16T16:22:59.669Z,47.85
2023-02-16T16:28:03.529Z,46.00
2023-02-16T16:33:12.059Z,49.67
2023-02-16T16:38:25.618Z,51.37
2023-02-16T16:43:44.117Z,49.88
2023-02-16T16:48:50.062Z,49.55
2023-02-16T16:53:59.945Z,52.10
2023-02-16T16:59:02.165Z,55.92
2023-02-16T17:04:04.408Z,51.15
2023-02-16T17:09:06.705Z,54.33
2023-02-16T17:14:15.558Z,55.12
2023-02-16T17:19:21.008Z,54.97
2023-02-16T17:24:23.247Z,58.00
2023-02-16T17:29:25.458Z,56.33
2023-02-16T17:34:30.927Z,60.97
2023-02-16T17:39:33.805Z,59.40
2023-02-16T17:44:36.008Z,58.67
2023-02-16T17:49:38.691Z,58.90
2023-02-16T17:54:40.887Z,62.88
2023-02-16T17:59:43.175Z,61.72
2023-02-16T18:04:45.375Z,73.87
2023-02-16T18:09:48.912Z,64.07
2023-02-16T18:14:51.050Z,64.20
2023-02-16T18:19:53.130Z,64.72
2023-02-16T18:24:55.288Z,67.43
2023-02-16T18:29:57.601Z,70.32
2023-02-16T18:34:59.706Z,72.33
2023-02-16T18:40:01.905Z,71.25
2023-02-16T18:45:05.357Z,70.55
2023-02-16T18:50:18.442Z,73.35
2023-02-16T18:55:20.674Z,73.57
2023-02-16T19:00:23.891Z,73.87
2023-02-16T19:05:26.011Z,79.32
2023-02-16T19:10:28.378Z,86.40
2023-02-16T19:15:30.556Z,79.20
2023-02-16T19:20:32.792Z,81.50
2023-02-16T19:25:36.512Z,73.87
2023-02-16T19:30:39.141Z,74.87
2023-02-16T19:35:41.353Z,74.87
2023-02-16T19:40:43.674Z,71.07
2023-02-16T19:45:45.849Z,74.30
2023-02-16T19:50:48.106Z,76.57
2023-02-16T19:55:54.869Z,72.97
2023-02-16T20:00:57.120Z,72.43
2023-02-16T20:05:59.278Z,68.97
2023-02-16T20:11:05.966Z,66.97
2023-02-16T20:16:10.585Z,63.87
2023-02-16T20:21:20.938Z,64.15
2023-02-16T20:26:29.069Z,62.53
2023-02-16T20:31:38.168Z,67.12
2023-02-16T20:36:40.785Z,67.53
2023-02-16T20:41:44.134Z,61.17
2023-02-16T20:46:46.377Z,67.68
2023-02-16T20:51:49.144Z,64.82
2023-02-16T20:56:51.374Z,69.53
2023-02-16T21:01:53.656Z,67.95
2023-02-16T21:06:55.894Z,75.37
2023-02-16T21:11:58.137Z,69.75
2023-02-16T21:17:00.687Z,69.12
2023-02-16T21:22:02.953Z,68.10
2023-02-16T21:27:05.239Z,65.50
2023-02-16T21:32:07.584Z,62.73
2023-02-16T21:37:10.174Z,68.50
2023-02-16T21:42:12.829Z,63.42
2023-02-16T21:47:34.022Z,67.35
2023-02-16T21:52:36.145Z,65.80
2023-02-16T21:57:38.209Z,71.90
2023-02-16T22:02:40.443Z,68.07
2023-02-16T22:07:42.775Z,66.60
2023-02-16T22:12:44.937Z,65.45
2023-02-16T22:17:47.301Z,69.32
2023-02-16T22:22:53.490Z,62.83
2023-02-16T22:27:57.397Z,66.72
2023-02-16T22:32:59.764Z,65.78
2023-02-16T22:38:02.235Z,67.78
2023-02-16T22:43:04.312Z,62.60
2023-02-16T22:48:06.470Z,66.80
2023-02-16T22:53:08.656Z,64.07
2023-02-16T22:58:10.903Z,65.80
2023-02-16T23:03:13.220Z,73.75
2023-02-16T23:08:15.777Z,73.18
2023-02-16T23:13:17.938Z,61.60
2023-02-16T23:18:20.063Z,65.90
2023-02-16T23:23:22.198Z,73.85
2023-02-16T23:28:24.402Z,72.03
2023-02-16T23:33:26.562Z,68.00
2023-02-16T23:38:28.921Z,64.67
2023-02-16T23:43:32.266Z,62.30
2023-02-16T23:48:34.951Z,66.12
2023-02-16T23:53:37.017Z,58.83
2023-02-16T23:58:41.408Z,63.03
